sensor_id;sensor_type;location;lat;lon;timestamp;temperature;humidity
74368;DHT22;64991;41.090;-8.118;2023-05-07T00:04:14;21.60;83.20
74368;DHT22;64991;41.090;-8.118;2023-05-07T00:09:20;21.70;83.10
74368;DHT22;64991;41.090;-8.118;2023-05-07T00:14:23;21.60;83.50
74368;DHT22;64991;41.090;-8.118;2023-05-07T00:19:26;21.60;83.30
74368;DHT22;64991;41.090;-8.118;2023-05-07T00:24:31;21.60;83.20
74368;DHT22;64991;41.090;-8.118;2023-05-07T00:29:35;21.70;83.20
74368;DHT22;64991;41.090;-8.118;2023-05-07T00:34:38;21.60;83.30
74368;DHT22;64991;41.090;-8.118;2023-05-07T00:39:43;21.60;83.50
74368;DHT22;64991;41.090;-8.118;2023-05-07T00:44:47;21.50;83.70
74368;DHT22;64991;41.090;-8.118;2023-05-07T00:49:50;21.50;83.30
74368;DHT22;64991;41.090;-8.118;2023-05-07T00:54:56;21.60;83.50
74368;DHT22;64991;41.090;-8.118;2023-05-07T00:59:59;21.60;83.60
74368;DHT22;64991;41.090;-8.118;2023-05-07T01:05:03;21.60;83.50
74368;DHT22;64991;41.090;-8.118;2023-05-07T01:10:11;21.50;83.70
74368;DHT22;64991;41.090;-8.118;2023-05-07T01:15:15;21.60;83.50
74368;DHT22;64991;41.090;-8.118;2023-05-07T01:20:19;21.60;83.70
74368;DHT22;64991;41.090;-8.118;2023-05-07T01:25:24;21.50;83.60
74368;DHT22;64991;41.090;-8.118;2023-05-07T01:30:27;21.60;83.60
74368;DHT22;64991;41.090;-8.118;2023-05-07T01:35:32;21.50;83.50
74368;DHT22;64991;41.090;-8.118;2023-05-07T01:40:40;21.50;83.60
74368;DHT22;64991;41.090;-8.118;2023-05-07T01:45:44;21.50;83.50
74368;DHT22;64991;41.090;-8.118;2023-05-07T01:50:48;21.60;83.70
74368;DHT22;64991;41.090;-8.118;2023-05-07T01:55:53;21.50;83.50
74368;DHT22;64991;41.090;-8.118;2023-05-07T02:00:56;21.50;83.60
74368;DHT22;64991;41.090;-8.118;2023-05-07T02:06:00;21.50;83.80
74368;DHT22;64991;41.090;-8.118;2023-05-07T02:11:05;21.50;83.90
74368;DHT22;64991;41.090;-8.118;2023-05-07T02:16:09;21.50;83.60
74368;DHT22;64991;41.090;-8.118;2023-05-07T02:21:12;21.50;83.60
74368;DHT22;64991;41.090;-8.118;2023-05-07T02:26:17;21.50;83.90
74368;DHT22;64991;41.090;-8.118;2023-05-07T02:31:21;21.50;83.60
74368;DHT22;64991;41.090;-8.118;2023-05-07T02:36:24;21.50;83.60
74368;DHT22;64991;41.090;-8.118;2023-05-07T02:41:29;21.50;83.70
74368;DHT22;64991;41.090;-8.118;2023-05-07T02:46:33;21.50;83.60
74368;DHT22;64991;41.090;-8.118;2023-05-07T02:51:37;21.50;83.70
74368;DHT22;64991;41.090;-8.118;2023-05-07T02:56:42;21.50;83.70
74368;DHT22;64991;41.090;-8.118;2023-05-07T03:01:45;21.50;83.40
74368;DHT22;64991;41.090;-8.118;2023-05-07T03:06:50;21.50;83.80
74368;DHT22;64991;41.090;-8.118;2023-05-07T03:11:55;21.50;84.00
74368;DHT22;64991;41.090;-8.118;2023-05-07T03:16:59;21.50;83.50
74368;DHT22;64991;41.090;-8.118;2023-05-07T03:22:03;21.50;83.50
74368;DHT22;64991;41.090;-8.118;2023-05-07T03:27:08;21.50;83.70
74368;DHT22;64991;41.090;-8.118;2023-05-07T03:32:11;21.40;83.90
74368;DHT22;64991;41.090;-8.118;2023-05-07T03:37:15;21.50;83.80
74368;DHT22;64991;41.090;-8.118;2023-05-07T03:42:20;21.50;83.70
74368;DHT22;64991;41.090;-8.118;2023-05-07T03:47:23;21.50;83.70
74368;DHT22;64991;41.090;-8.118;2023-05-07T03:52:27;21.50;83.80
74368;DHT22;64991;41.090;-8.118;2023-05-07T03:57:32;21.40;83.80
74368;DHT22;64991;41.090;-8.118;2023-05-07T04:02:35;21.50;83.70
74368;DHT22;64991;41.090;-8.118;2023-05-07T04:07:39;21.40;83.80
74368;DHT22;64991;41.090;-8.118;2023-05-07T04:12:44;21.40;83.70
74368;DHT22;64991;41.090;-8.118;2023-05-07T04:17:47;21.40;83.80
74368;DHT22;64991;41.090;-8.118;2023-05-07T04:22:51;21.40;83.90
74368;DHT22;64991;41.090;-8.118;2023-05-07T04:27:56;21.40;83.80
74368;DHT22;64991;41.090;-8.118;2023-05-07T04:32:59;21.50;83.60
74368;DHT22;64991;41.090;-8.118;2023-05-07T04:38:03;21.40;83.70
74368;DHT22;64991;41.090;-8.118;2023-05-07T04:43:08;21.40;83.90
74368;DHT22;64991;41.090;-8.118;2023-05-07T04:48:11;21.50;83.80
74368;DHT22;64991;41.090;-8.118;2023-05-07T04:53:16;21.50;83.90
74368;DHT22;64991;41.090;-8.118;2023-05-07T04:58:21;21.40;83.90
74368;DHT22;64991;41.090;-8.118;2023-05-07T05:03:25;21.40;83.70
74368;DHT22;64991;41.090;-8.118;2023-05-07T05:08:29;21.40;83.80
74368;DHT22;64991;41.090;-8.118;2023-05-07T05:13:34;21.40;83.70
74368;DHT22;64991;41.090;-8.118;2023-05-07T05:18:38;21.50;83.90
74368;DHT22;64991;41.090;-8.118;2023-05-07T05:23:41;21.50;84.00
74368;DHT22;64991;41.090;-8.118;2023-05-07T05:28:46;21.50;83.90
74368;DHT22;64991;41.090;-8.118;2023-05-07T05:33:50;21.40;83.90
74368;DHT22;64991;41.090;-8.118;2023-05-07T05:38:53;21.50;83.70
74368;DHT22;64991;41.090;-8.118;2023-05-07T05:43:59;21.50;84.00
74368;DHT22;64991;41.090;-8.118;2023-05-07T05:49:03;21.50;83.90
74368;DHT22;64991;41.090;-8.118;2023-05-07T05:54:07;21.50;84.00
74368;DHT22;64991;41.090;-8.118;2023-05-07T05:59:11;21.50;83.80
74368;DHT22;64991;41.090;-8.118;2023-05-07T06:04:15;21.50;83.90
74368;DHT22;64991;41.090;-8.118;2023-05-07T06:09:19;21.40;83.70
74368;DHT22;64991;41.090;-8.118;2023-05-07T06:14:24;21.40;83.70
74368;DHT22;64991;41.090;-8.118;2023-05-07T06:19:27;21.40;83.80
74368;DHT22;64991;41.090;-8.118;2023-05-07T06:24:31;21.40;83.60
74368;DHT22;64991;41.090;-8.118;2023-05-07T06:29:36;21.40;83.60
74368;DHT22;64991;41.090;-8.118;2023-05-07T06:34:39;21.50;83.90
74368;DHT22;64991;41.090;-8.118;2023-05-07T06:39:43;21.40;83.60
74368;DHT22;64991;41.090;-8.118;2023-05-07T06:44:48;21.40;83.80
74368;DHT22;64991;41.090;-8.118;2023-05-07T06:49:51;21.50;83.70
74368;DHT22;64991;41.090;-8.118;2023-05-07T06:54:55;21.50;83.70
74368;DHT22;64991;41.090;-8.118;2023-05-07T07:00:00;21.50;83.80
74368;DHT22;64991;41.090;-8.118;2023-05-07T07:05:04;21.50;83.60
74368;DHT22;64991;41.090;-8.118;2023-05-07T07:10:09;21.50;83.60
74368;DHT22;64991;41.090;-8.118;2023-05-07T07:15:14;21.60;83.30
74368;DHT22;64991;41.090;-8.118;2023-05-07T07:20:18;21.70;83.20
74368;DHT22;64991;41.090;-8.118;2023-05-07T07:25:21;21.70;83.10
74368;DHT22;64991;41.090;-8.118;2023-05-07T07:30:26;21.70;83.10
74368;DHT22;64991;41.090;-8.118;2023-05-07T07:35:29;21.70;82.90
74368;DHT22;64991;41.090;-8.118;2023-05-07T07:40:34;21.80;83.00
74368;DHT22;64991;41.090;-8.118;2023-05-07T07:45:39;21.70;82.50
74368;DHT22;64991;41.090;-8.118;2023-05-07T07:50:43;21.80;82.60
74368;DHT22;64991;41.090;-8.118;2023-05-07T07:55:47;21.90;82.80
74368;DHT22;64991;41.090;-8.118;2023-05-07T08:00:52;22.00;83.00
74368;DHT22;64991;41.090;-8.118;2023-05-07T08:05:57;22.10;83.40
74368;DHT22;64991;41.090;-8.118;2023-05-07T08:11:01;22.00;83.70
74368;DHT22;64991;41.090;-8.118;2023-05-07T08:16:06;22.10;83.70
74368;DHT22;64991;41.090;-8.118;2023-05-07T08:21:09;22.10;83.90
74368;DHT22;64991;41.090;-8.118;2023-05-07T08:26:13;22.10;83.70
74368;DHT22;64991;41.090;-8.118;2023-05-07T08:31:18;22.10;84.20
74368;DHT22;64991;41.090;-8.118;2023-05-07T08:36:22;22.10;84.30
74368;DHT22;64991;41.090;-8.118;2023-05-07T08:41:25;22.20;84.20
74368;DHT22;64991;41.090;-8.118;2023-05-07T08:46:31;22.20;84.30
74368;DHT22;64991;41.090;-8.118;2023-05-07T08:51:35;22.10;84.20
74368;DHT22;64991;41.090;-8.118;2023-05-07T08:56:39;22.20;84.30
74368;DHT22;64991;41.090;-8.118;2023-05-07T09:01:44;22.10;84.30
74368;DHT22;64991;41.090;-8.118;2023-05-07T09:06:47;22.10;84.20
74368;DHT22;64991;41.090;-8.118;2023-05-07T09:11:56;22.10;83.60
74368;DHT22;64991;41.090;-8.118;2023-05-07T09:17:02;22.10;83.70
74368;DHT22;64991;41.090;-8.118;2023-05-07T09:22:06;22.20;84.10
74368;DHT22;64991;41.090;-8.118;2023-05-07T09:27:09;22.20;83.40
74368;DHT22;64991;41.090;-8.118;2023-05-07T09:32:16;22.10;81.50
74368;DHT22;64991;41.090;-8.118;2023-05-07T09:37:20;22.00;79.50
74368;DHT22;64991;41.090;-8.118;2023-05-07T09:42:24;22.10;80.70
74368;DHT22;64991;41.090;-8.118;2023-05-07T09:47:30;22.00;80.80
74368;DHT22;64991;41.090;-8.118;2023-05-07T09:52:35;22.20;81.50
74368;DHT22;64991;41.090;-8.118;2023-05-07T09:57:39;22.30;81.60
74368;DHT22;64991;41.090;-8.118;2023-05-07T10:02:44;22.30;81.10
74368;DHT22;64991;41.090;-8.118;2023-05-07T10:07:51;22.30;81.20
74368;DHT22;64991;41.090;-8.118;2023-05-07T10:12:56;22.30;81.50
74368;DHT22;64991;41.090;-8.118;2023-05-07T10:18:01;22.30;81.50
74368;DHT22;64991;41.090;-8.118;2023-05-07T10:23:06;22.40;82.00
74368;DHT22;64991;41.090;-8.118;2023-05-07T10:28:11;22.30;82.30
74368;DHT22;64991;41.090;-8.118;2023-05-07T10:33:17;22.40;82.40
74368;DHT22;64991;41.090;-8.118;2023-05-07T10:38:23;22.30;82.50
74368;DHT22;64991;41.090;-8.118;2023-05-07T10:43:36;22.30;82.40
74368;DHT22;64991;41.090;-8.118;2023-05-07T10:54:22;22.40;83.10
74368;DHT22;64991;41.090;-8.118;2023-05-07T10:59:30;22.30;83.00
74368;DHT22;64991;41.090;-8.118;2023-05-07T11:04:45;22.30;83.50
74368;DHT22;64991;41.090;-8.118;2023-05-07T11:09:55;22.30;83.90
74368;DHT22;64991;41.090;-8.118;2023-05-07T11:15:09;22.30;84.00
74368;DHT22;64991;41.090;-8.118;2023-05-07T11:20:15;22.30;83.80
74368;DHT22;64991;41.090;-8.118;2023-05-07T11:25:19;22.40;84.10
74368;DHT22;64991;41.090;-8.118;2023-05-07T11:30:23;22.40;83.80
74368;DHT22;64991;41.090;-8.118;2023-05-07T11:35:28;22.40;83.60
74368;DHT22;64991;41.090;-8.118;2023-05-07T11:40:32;22.40;83.40
74368;DHT22;64991;41.090;-8.118;2023-05-07T11:45:35;22.30;82.90
74368;DHT22;64991;41.090;-8.118;2023-05-07T11:50:51;22.40;83.60
74368;DHT22;64991;41.090;-8.118;2023-05-07T11:55:54;22.40;81.90
74368;DHT22;64991;41.090;-8.118;2023-05-07T12:00:58;22.30;82.70
74368;DHT22;64991;41.090;-8.118;2023-05-07T12:06:03;22.40;82.40
74368;DHT22;64991;41.090;-8.118;2023-05-07T12:11:09;22.40;81.60
74368;DHT22;64991;41.090;-8.118;2023-05-07T12:16:14;22.40;82.00
74368;DHT22;64991;41.090;-8.118;2023-05-07T12:21:19;22.40;82.60
74368;DHT22;64991;41.090;-8.118;2023-05-07T12:26:22;22.40;83.30
74368;DHT22;64991;41.090;-8.118;2023-05-07T12:31:27;22.40;83.10
74368;DHT22;64991;41.090;-8.118;2023-05-07T12:36:37;22.30;83.80
74368;DHT22;64991;41.090;-8.118;2023-05-07T12:41:53;22.40;84.00
74368;DHT22;64991;41.090;-8.118;2023-05-07T12:46:57;22.40;84.20
74368;DHT22;64991;41.090;-8.118;2023-05-07T12:52:03;22.40;84.20
74368;DHT22;64991;41.090;-8.118;2023-05-07T12:57:07;22.40;84.80
74368;DHT22;64991;41.090;-8.118;2023-05-07T13:02:11;22.40;84.60
74368;DHT22;64991;41.090;-8.118;2023-05-07T13:07:16;22.30;84.90
74368;DHT22;64991;41.090;-8.118;2023-05-07T13:12:20;22.30;84.80
74368;DHT22;64991;41.090;-8.118;2023-05-07T13:17:23;22.30;85.10
74368;DHT22;64991;41.090;-8.118;2023-05-07T13:22:28;22.40;84.70
74368;DHT22;64991;41.090;-8.118;2023-05-07T13:27:32;22.40;85.00
74368;DHT22;64991;41.090;-8.118;2023-05-07T13:32:38;22.30;85.10
74368;DHT22;64991;41.090;-8.118;2023-05-07T13:37:43;22.30;84.90
74368;DHT22;64991;41.090;-8.118;2023-05-07T13:42:47;22.40;84.70
74368;DHT22;64991;41.090;-8.118;2023-05-07T13:47:53;22.30;84.90
74368;DHT22;64991;41.090;-8.118;2023-05-07T13:52:58;22.40;84.90
74368;DHT22;64991;41.090;-8.118;2023-05-07T13:58:02;22.30;84.70
74368;DHT22;64991;41.090;-8.118;2023-05-07T14:03:08;22.30;84.50
74368;DHT22;64991;41.090;-8.118;2023-05-07T14:08:13;22.30;84.60
74368;DHT22;64991;41.090;-8.118;2023-05-07T14:13:17;22.30;84.80
74368;DHT22;64991;41.090;-8.118;2023-05-07T14:18:21;22.40;84.70
74368;DHT22;64991;41.090;-8.118;2023-05-07T14:23:25;22.30;84.60
74368;DHT22;64991;41.090;-8.118;2023-05-07T14:28:29;22.40;84.50
74368;DHT22;64991;41.090;-8.118;2023-05-07T14:33:33;22.30;84.60
74368;DHT22;64991;41.090;-8.118;2023-05-07T14:38:37;22.40;84.50
74368;DHT22;64991;41.090;-8.118;2023-05-07T14:43:41;22.40;84.50
74368;DHT22;64991;41.090;-8.118;2023-05-07T14:48:45;22.30;84.20
74368;DHT22;64991;41.090;-8.118;2023-05-07T14:53:51;22.30;84.10
74368;DHT22;64991;41.090;-8.118;2023-05-07T14:58:54;22.40;84.10
74368;DHT22;64991;41.090;-8.118;2023-05-07T15:03:58;22.30;85.40
74368;DHT22;64991;41.090;-8.118;2023-05-07T15:09:03;22.30;84.20
74368;DHT22;64991;41.090;-8.118;2023-05-07T15:14:07;22.30;84.90
74368;DHT22;64991;41.090;-8.118;2023-05-07T15:19:10;22.30;84.80
74368;DHT22;64991;41.090;-8.118;2023-05-07T15:24:15;22.30;84.80
74368;DHT22;64991;41.090;-8.118;2023-05-07T15:29:19;22.30;85.00
74368;DHT22;64991;41.090;-8.118;2023-05-07T15:34:22;22.30;85.30
74368;DHT22;64991;41.090;-8.118;2023-05-07T15:39:28;22.30;85.00
74368;DHT22;64991;41.090;-8.118;2023-05-07T15:44:32;22.30;85.30
74368;DHT22;64991;41.090;-8.118;2023-05-07T15:49:36;22.30;85.30
74368;DHT22;64991;41.090;-8.118;2023-05-07T15:54:41;22.20;85.40
74368;DHT22;64991;41.090;-8.118;2023-05-07T15:59:45;22.40;85.10
74368;DHT22;64991;41.090;-8.118;2023-05-07T16:04:50;22.30;84.80
74368;DHT22;64991;41.090;-8.118;2023-05-07T16:09:55;22.20;84.50
74368;DHT22;64991;41.090;-8.118;2023-05-07T16:14:58;22.20;84.40
74368;DHT22;64991;41.090;-8.118;2023-05-07T16:20:02;22.20;84.20
74368;DHT22;64991;41.090;-8.118;2023-05-07T16:25:09;22.20;84.30
74368;DHT22;64991;41.090;-8.118;2023-05-07T16:30:15;22.20;84.20
74368;DHT22;64991;41.090;-8.118;2023-05-07T16:35:19;22.20;84.30
74368;DHT22;64991;41.090;-8.118;2023-05-07T16:40:24;22.20;84.30
74368;DHT22;64991;41.090;-8.118;2023-05-07T16:45:27;22.20;84.30
74368;DHT22;64991;41.090;-8.118;2023-05-07T16:50:31;22.20;84.40
74368;DHT22;64991;41.090;-8.118;2023-05-07T16:55:36;22.20;84.50
74368;DHT22;64991;41.090;-8.118;2023-05-07T17:00:40;22.20;84.30
74368;DHT22;64991;41.090;-8.118;2023-05-07T17:05:51;22.20;84.50
74368;DHT22;64991;41.090;-8.118;2023-05-07T17:10:56;22.20;84.40
74368;DHT22;64991;41.090;-8.118;2023-05-07T17:16:00;22.20;84.40
74368;DHT22;64991;41.090;-8.118;2023-05-07T17:21:04;22.20;84.30
74368;DHT22;64991;41.090;-8.118;2023-05-07T17:26:11;22.20;84.40
74368;DHT22;64991;41.090;-8.118;2023-05-07T17:31:15;22.20;84.50
74368;DHT22;64991;41.090;-8.118;2023-05-07T17:36:19;22.20;84.40
74368;DHT22;64991;41.090;-8.118;2023-05-07T17:41:24;22.30;84.60
74368;DHT22;64991;41.090;-8.118;2023-05-07T17:46:27;22.20;84.30
74368;DHT22;64991;41.090;-8.118;2023-05-07T17:51:31;22.20;84.60
74368;DHT22;64991;41.090;-8.118;2023-05-07T17:56:55;22.20;84.40
74368;DHT22;64991;41.090;-8.118;2023-05-07T18:01:59;22.20;84.50
74368;DHT22;64991;41.090;-8.118;2023-05-07T18:07:02;22.20;84.50
74368;DHT22;64991;41.090;-8.118;2023-05-07T18:12:07;22.20;84.30
74368;DHT22;64991;41.090;-8.118;2023-05-07T18:17:11;22.20;84.40
74368;DHT22;64991;41.090;-8.118;2023-05-07T18:22:14;22.30;84.40
74368;DHT22;64991;41.090;-8.118;2023-05-07T18:27:19;22.20;84.40
74368;DHT22;64991;41.090;-8.118;2023-05-07T18:32:23;22.20;84.60
74368;DHT22;64991;41.090;-8.118;2023-05-07T18:37:26;22.20;84.30
74368;DHT22;64991;41.090;-8.118;2023-05-07T18:42:33;22.20;84.40
74368;DHT22;64991;41.090;-8.118;2023-05-07T18:47:37;22.20;84.40
74368;DHT22;64991;41.090;-8.118;2023-05-07T18:52:41;22.20;84.40
74368;DHT22;64991;41.090;-8.118;2023-05-07T18:57:46;22.20;84.40
74368;DHT22;64991;41.090;-8.118;2023-05-07T19:02:49;22.20;84.30
74368;DHT22;64991;41.090;-8.118;2023-05-07T19:07:53;22.10;84.30
74368;DHT22;64991;41.090;-8.118;2023-05-07T19:12:58;22.20;84.20
74368;DHT22;64991;41.090;-8.118;2023-05-07T19:18:01;22.30;84.50
74368;DHT22;64991;41.090;-8.118;2023-05-07T19:23:05;22.20;84.20
74368;DHT22;64991;41.090;-8.118;2023-05-07T19:28:11;22.20;84.50
74368;DHT22;64991;41.090;-8.118;2023-05-07T19:33:15;22.20;84.40
74368;DHT22;64991;41.090;-8.118;2023-05-07T19:38:18;22.20;84.60
74368;DHT22;64991;41.090;-8.118;2023-05-07T19:43:23;22.20;84.30
74368;DHT22;64991;41.090;-8.118;2023-05-07T19:48:27;22.20;84.40
74368;DHT22;64991;41.090;-8.118;2023-05-07T19:53:30;22.20;84.40
74368;DHT22;64991;41.090;-8.118;2023-05-07T19:58:35;22.20;84.60
74368;DHT22;64991;41.090;-8.118;2023-05-07T20:03:40;22.20;84.40
74368;DHT22;64991;41.090;-8.118;2023-05-07T20:08:44;22.20;84.40
74368;DHT22;64991;41.090;-8.118;2023-05-07T20:13:49;22.20;84.20
74368;DHT22;64991;41.090;-8.118;2023-05-07T20:18:52;22.20;84.40
74368;DHT22;64991;41.090;-8.118;2023-05-07T20:23:56;22.20;84.20
74368;DHT22;64991;41.090;-8.118;2023-05-07T20:29:00;22.20;84.40
74368;DHT22;64991;41.090;-8.118;2023-05-07T20:34:05;22.20;84.40
74368;DHT22;64991;41.090;-8.118;2023-05-07T20:39:09;22.20;84.40
74368;DHT22;64991;41.090;-8.118;2023-05-07T20:44:18;22.20;84.60
74368;DHT22;64991;41.090;-8.118;2023-05-07T20:49:21;22.20;84.30
74368;DHT22;64991;41.090;-8.118;2023-05-07T20:54:25;22.20;84.30
74368;DHT22;64991;41.090;-8.118;2023-05-07T20:59:31;22.20;84.40
74368;DHT22;64991;41.090;-8.118;2023-05-07T21:04:35;22.20;84.30
74368;DHT22;64991;41.090;-8.118;2023-05-07T21:09:39;22.10;84.40
74368;DHT22;64991;41.090;-8.118;2023-05-07T21:14:44;22.10;84.40
74368;DHT22;64991;41.090;-8.118;2023-05-07T21:19:48;22.20;84.20
74368;DHT22;64991;41.090;-8.118;2023-05-07T21:24:51;22.20;84.30
74368;DHT22;64991;41.090;-8.118;2023-05-07T21:29:56;22.20;84.10
74368;DHT22;64991;41.090;-8.118;2023-05-07T21:35:05;22.20;84.50
74368;DHT22;64991;41.090;-8.118;2023-05-07T21:40:10;22.20;84.30
74368;DHT22;64991;41.090;-8.118;2023-05-07T21:45:16;22.20;84.30
74368;DHT22;64991;41.090;-8.118;2023-05-07T21:50:19;22.20;84.20
74368;DHT22;64991;41.090;-8.118;2023-05-07T21:55:24;22.20;84.30
74368;DHT22;64991;41.090;-8.118;2023-05-07T22:00:28;22.20;84.10
74368;DHT22;64991;41.090;-8.118;2023-05-07T22:05:32;22.20;84.20
74368;DHT22;64991;41.090;-8.118;2023-05-07T22:10:36;22.10;84.20
74368;DHT22;64991;41.090;-8.118;2023-05-07T22:15:41;22.20;84.10
74368;DHT22;64991;41.090;-8.118;2023-05-07T22:20:58;22.20;83.90
74368;DHT22;64991;41.090;-8.118;2023-05-07T22:26:08;22.10;84.20
74368;DHT22;64991;41.090;-8.118;2023-05-07T22:31:13;22.20;84.20
74368;DHT22;64991;41.090;-8.118;2023-05-07T22:36:17;22.10;84.20
74368;DHT22;64991;41.090;-8.118;2023-05-07T22:41:20;22.10;84.30
74368;DHT22;64991;41.090;-8.118;2023-05-07T22:46:26;22.20;84.10
74368;DHT22;64991;41.090;-8.118;2023-05-07T22:51:29;22.20;83.90
74368;DHT22;64991;41.090;-8.118;2023-05-07T22:56:33;22.20;84.00
74368;DHT22;64991;41.090;-8.118;2023-05-07T23:01:38;22.10;84.00
74368;DHT22;64991;41.090;-8.118;2023-05-07T23:06:41;22.20;84.00
74368;DHT22;64991;41.090;-8.118;2023-05-07T23:11:45;22.10;83.70
74368;DHT22;64991;41.090;-8.118;2023-05-07T23:16:50;22.10;83.80
74368;DHT22;64991;41.090;-8.118;2023-05-07T23:21:54;22.10;83.80
74368;DHT22;64991;41.090;-8.118;2023-05-07T23:26:57;22.20;83.70
74368;DHT22;64991;41.090;-8.118;2023-05-07T23:32:02;22.10;83.60
74368;DHT22;64991;41.090;-8.118;2023-05-07T23:37:07;22.10;83.60
74368;DHT22;64991;41.090;-8.118;2023-05-07T23:42:10;22.10;83.70
74368;DHT22;64991;41.090;-8.118;2023-05-07T23:47:15;22.10;83.50
74368;DHT22;64991;41.090;-8.118;2023-05-07T23:52:19;22.10;83.50
74368;DHT22;64991;41.090;-8.118;2023-05-07T23:57:23;22.10;83.60
